.
WxDataArchive / Data Records for 2016-01-04
2016-01-03 January 2016 2016-01-05

Data Records for Monday, 04 January 2016

Time	Temp	Chill	HIndex	Humid	Dewpt	 Wind 	HiWind	WindDir	Rain 	Barom
-----	----	-----	------	-----	-----	------	------	-------	-----	-----
00:00	28.4	28.4	28.4	76	21.8	0	2	292	0.00	30.185 
00:05	28.4	28.4	28.4	77	22.1	0	3	292	0.00	30.185 
00:10	28.2	28.2	28.2	77	21.9	1	3	292	0.00	30.185 
00:15	28.2	28.2	28.2	77	21.9	0	3	292	0.00	30.185 
00:20	28.2	28.2	28.2	77	21.9	0	2	292	0.00	30.185 
00:25	28.1	28.1	28.1	77	21.8	0	2	292	0.00	30.185 
00:30	28.1	28.1	28.1	77	21.8	0	3	292	0.00	30.187 
00:35	28.1	28.1	28.1	77	21.8	1	3	292	0.00	30.187 
00:40	28.1	28.1	28.1	77	21.8	1	4	292	0.00	30.187 
00:45	28.1	28.1	28.1	77	21.8	0	2	292	0.00	30.186 
00:50	28.1	28.1	28.1	77	21.8	0	3	292	0.00	30.186 
00:55	27.9	27.9	27.9	78	21.9	0	3	292	0.00	30.186 
01:00	27.9	27.9	27.9	77	21.6	0	2	292	0.00	30.184 
01:05	27.9	27.9	27.9	77	21.6	0	3	292	0.00	30.184 
01:10	27.9	27.9	27.9	77	21.6	0	2	292	0.00	30.184 
01:15	27.9	27.9	27.9	77	21.6	0	3	292	0.00	30.181 
01:20	27.8	27.8	27.8	77	21.5	0	2	292	0.00	30.181 
01:25	27.8	27.8	27.8	77	21.5	0	3	292	0.00	30.181 
01:30	27.8	27.8	27.8	77	21.5	0	2	292	0.00	30.180 
01:35	27.8	27.8	27.8	77	21.5	0	1	292	0.00	30.180 
01:40	27.8	27.8	27.8	77	21.5	0	1	292	0.00	30.180 
01:45	27.6	27.6	27.6	77	21.4	1	2	292	0.00	30.182 
01:50	27.6	27.6	27.6	78	21.7	0	2	292	0.00	30.182 
01:55	27.6	27.6	27.6	78	21.7	0	2	292	0.00	30.182 
02:00	27.6	27.6	27.6	78	21.7	0	4	292	0.00	30.179 
02:05	27.5	27.5	27.5	78	21.6	0	2	292	0.00	30.179 
02:10	27.5	27.5	27.5	79	21.9	0	2	292	0.00	30.179 
02:15	27.5	27.5	27.5	79	21.9	0	2	292	0.00	30.183 
02:20	27.3	27.3	27.3	79	21.7	0	1	292	0.00	30.183 
02:25	27.3	27.3	27.3	79	21.7	0	2	292	0.00	30.183 
02:30	27.2	27.2	27.2	80	21.9	0	3	292	0.00	30.186 
02:35	27.2	27.2	27.2	80	21.9	0	1	292	0.00	30.186 
02:40	27.2	27.2	27.2	80	21.9	0	3	292	0.00	30.186 
02:45	27.2	27.2	27.2	80	21.9	0	1	292	0.00	30.189 
02:50	27.0	27.0	27.0	80	21.7	0	2	292	0.00	30.189 
02:55	27.0	27.0	27.0	80	21.7	0	1	292	0.00	30.189 
03:00	26.9	26.9	26.9	80	21.6	0	2	292	0.00	30.199 
03:05	26.7	26.7	26.7	80	21.4	0	1	292	0.00	30.199 
03:10	26.4	26.4	26.4	80	21.1	0	0	---	0.00	30.199 
03:15	26.3	26.3	26.3	80	21.0	0	3	292	0.00	30.200 
03:20	26.1	26.1	26.1	81	21.1	0	1	292	0.00	30.200 
03:25	26.0	26.0	26.0	81	21.0	0	1	292	0.00	30.200 
03:30	25.8	25.8	25.8	81	20.8	0	1	292	0.00	30.204 
03:35	25.8	25.8	25.8	81	20.8	0	1	292	0.00	30.204 
03:40	25.6	25.6	25.6	81	20.6	0	1	292	0.00	30.204 
03:45	25.6	25.6	25.6	81	20.6	0	1	292	0.00	30.205 
03:50	25.4	25.4	25.4	82	20.7	0	1	292	0.00	30.205 
03:55	25.3	25.3	25.3	82	20.6	0	2	292	0.00	30.205 
04:00	25.3	25.3	25.3	82	20.6	0	1	292	0.00	30.215 
04:05	25.3	25.3	25.3	82	20.6	0	0	---	0.00	30.215 
04:10	25.3	25.3	25.3	82	20.6	0	1	292	0.00	30.215 
04:15	25.1	25.1	25.1	82	20.4	0	1	292	0.00	30.219 
04:20	25.1	25.1	25.1	82	20.4	0	1	292	0.00	30.219 
04:25	25.3	25.3	25.3	82	20.6	0	1	292	0.00	30.219 
04:30	25.1	25.1	25.1	83	20.7	0	1	292	0.00	30.220 
04:35	25.1	25.1	25.1	83	20.7	0	1	292	0.00	30.220 
04:40	25.1	25.1	25.1	83	20.7	0	1	292	0.00	30.220 
04:45	25.1	25.1	25.1	83	20.7	0	1	292	0.00	30.220 
04:50	25.1	25.1	25.1	83	20.7	0	1	292	0.00	30.220 
04:55	25.1	25.1	25.1	83	20.7	0	2	292	0.00	30.220 
05:00	25.1	25.1	25.1	83	20.7	0	2	292	0.00	30.221 
05:05	25.1	25.1	25.1	83	20.7	0	2	292	0.00	30.221 
05:10	25.3	25.3	25.3	83	20.9	0	1	292	0.00	30.221 
05:15	25.3	25.3	25.3	83	20.9	0	2	292	0.00	30.231 
05:20	25.3	25.3	25.3	83	20.9	0	1	292	0.00	30.231 
05:25	25.3	25.3	25.3	83	20.9	0	1	292	0.00	30.231 
05:30	25.3	25.3	25.3	84	21.2	0	2	292	0.00	30.236 
05:35	25.4	25.4	25.4	84	21.3	0	1	292	0.00	30.236 
05:40	25.4	25.4	25.4	84	21.3	0	2	292	0.00	30.236 
05:45	25.4	25.4	25.4	84	21.3	0	1	292	0.00	30.240 
05:50	25.4	25.4	25.4	84	21.3	0	3	292	0.00	30.240 
05:55	25.6	25.6	25.6	84	21.5	0	2	292	0.00	30.240 
06:00	25.6	25.6	25.6	84	21.5	0	2	292	0.00	30.244 
06:05	25.6	25.6	25.6	84	21.5	0	1	292	0.00	30.244 
06:10	25.6	25.6	25.6	84	21.5	0	1	292	0.00	30.244 
06:15	25.6	25.6	25.6	84	21.5	0	1	292	0.00	30.250 
06:20	25.6	25.6	25.6	84	21.5	0	2	292	0.00	30.250 
06:25	25.7	25.7	25.7	84	21.5	0	2	292	0.00	30.250 
06:30	25.7	25.7	25.7	84	21.5	0	1	292	0.00	30.256 
06:35	25.7	25.7	25.7	84	21.5	0	1	292	0.00	30.256 
06:40	25.7	25.7	25.7	84	21.5	0	2	292	0.00	30.256 
06:45	25.8	25.8	25.8	84	21.6	0	2	292	0.00	30.262 
06:50	25.8	25.8	25.8	84	21.6	0	1	292	0.00	30.262 
06:55	25.8	25.8	25.8	84	21.6	0	2	292	0.00	30.262 
07:00	25.8	25.8	25.8	84	21.6	0	1	292	0.00	30.266 
07:05	25.8	25.8	25.8	84	21.6	0	1	292	0.00	30.266 
07:10	25.8	25.8	25.8	84	21.6	0	2	292	0.00	30.266 
07:15	25.8	25.8	25.8	84	21.6	1	3	292	0.00	30.275 
07:20	25.8	25.8	25.8	84	21.6	0	2	292	0.00	30.275 
07:25	25.8	25.8	25.8	84	21.6	0	2	292	0.00	30.275 
07:30	25.8	25.8	25.8	84	21.6	0	2	292	0.00	30.273 
07:35	25.8	25.8	25.8	85	21.9	0	1	292	0.00	30.273 
07:40	25.8	25.8	25.8	85	21.9	0	1	292	0.00	30.273 
07:45	25.8	25.8	25.8	85	21.9	0	3	292	0.00	30.283 
07:50	25.8	25.8	25.8	85	21.9	0	2	292	0.00	30.283 
07:55	25.8	25.8	25.8	86	22.2	0	1	292	0.00	30.283 
08:00	25.7	25.7	25.7	86	22.1	0	1	292	0.00	30.288 
08:05	25.7	25.7	25.7	86	22.1	0	2	292	0.00	30.288 
08:10	25.7	25.7	25.7	86	22.1	0	3	292	0.00	30.288 
08:15	25.7	25.7	25.7	86	22.1	0	2	292	0.00	30.296 
08:20	25.7	25.7	25.7	87	22.4	0	1	292	0.00	30.296 
08:25	25.7	25.7	25.7	87	22.4	0	2	292	0.00	30.296 
08:30	25.7	25.7	25.7	87	22.4	0	1	292	0.00	30.302 
08:35	25.7	25.7	25.7	87	22.4	0	1	292	0.00	30.302 
08:40	25.6	25.6	25.6	87	22.3	0	2	292	0.00	30.302 
08:45	25.6	25.6	25.6	87	22.3	0	1	292	0.00	30.310 
08:50	25.6	25.6	25.6	87	22.3	0	1	292	0.00	30.310 
08:55	25.6	25.6	25.6	87	22.3	0	1	292	0.00	30.310 
09:00	25.6	25.6	25.6	87	22.3	0	1	292	0.00	30.321 
09:05	25.6	25.6	25.6	87	22.3	0	1	292	0.00	30.321 
09:10	25.6	25.6	25.6	88	22.5	0	1	292	0.00	30.321 
09:15	25.8	25.8	25.8	88	22.7	0	1	292	0.00	30.331 
09:20	26.0	26.0	26.0	88	22.9	0	2	292	0.00	30.331 
09:25	26.1	26.1	26.1	88	23.0	0	2	292	0.00	30.331 
09:30	26.3	26.3	26.3	88	23.2	1	2	292	0.00	30.335 
09:35	26.4	26.4	26.4	88	23.3	1	2	292	0.00	30.335 
09:40	26.6	26.6	26.6	88	23.5	1	2	292	0.00	30.335 
09:45	26.7	26.7	26.7	88	23.6	1	3	292	0.00	30.340 
09:50	26.9	26.9	26.9	88	23.8	0	2	292	0.00	30.340 
09:55	26.9	26.9	26.9	87	23.6	0	1	292	0.00	30.340 
10:00	26.9	26.9	26.9	87	23.6	0	1	292	0.00	30.346 
10:05	26.9	26.9	26.9	87	23.6	0	2	292	0.00	30.346 
10:10	27.0	27.0	27.0	87	23.7	1	3	292	0.00	30.346 
10:15	27.5	27.5	27.5	87	24.1	1	3	292	0.00	30.358 
10:20	27.6	27.6	27.6	86	24.0	1	3	292	0.00	30.358 
10:25	28.2	28.2	28.2	86	24.6	0	2	292	0.00	30.358 
10:30	28.5	28.5	28.5	85	24.6	1	5	292	0.00	30.361 
10:35	28.8	28.8	28.8	85	24.9	2	5	315	0.00	30.361 
10:40	29.0	29.0	29.0	84	24.8	1	4	292	0.00	30.361 
10:45	29.0	29.0	29.0	83	24.5	1	4	292	0.00	30.364 
10:50	29.3	29.3	29.3	83	24.8	1	5	292	0.00	30.364 
10:55	29.5	29.5	29.5	82	24.7	1	3	270	0.00	30.364 
11:00	29.5	29.5	29.5	81	24.4	0	2	270	0.00	30.376 
11:05	29.5	29.5	29.5	81	24.4	0	2	270	0.00	30.376 
11:10	29.4	29.4	29.4	80	24.0	1	4	292	0.00	30.376 
11:15	29.3	29.3	29.3	80	23.9	1	3	292	0.00	30.378 
11:20	29.4	29.4	29.4	80	24.0	1	2	292	0.00	30.378 
11:25	29.4	29.4	29.4	79	23.7	1	5	292	0.00	30.378 
11:30	29.4	29.4	29.4	79	23.7	1	3	338	0.00	30.378 
11:35	29.4	29.4	29.4	79	23.7	0	3	338	0.00	30.378 
11:40	29.4	29.4	29.4	78	23.4	1	3	315	0.00	30.378 
11:45	29.7	29.7	29.7	78	23.7	1	4	338	0.00	30.377 
11:50	30.1	30.1	30.1	78	24.1	1	3	270	0.00	30.377 
11:55	30.1	30.1	30.1	77	23.8	1	4	270	0.00	30.377 
12:00	30.1	30.1	30.1	76	23.5	1	4	338	0.00	30.379 
12:05	30.1	30.1	30.1	75	23.2	0	2	338	0.00	30.379 
12:10	30.3	30.3	30.3	75	23.3	1	4	338	0.00	30.379 
12:15	30.1	30.1	30.1	74	22.8	1	3	338	0.00	30.378 
12:20	30.0	30.0	30.0	74	22.7	1	3	315	0.00	30.378 
12:25	29.8	29.8	29.8	74	22.5	0	3	315	0.00	30.378 
12:30	29.7	29.7	29.7	74	22.4	0	2	315	0.00	30.377 
12:35	29.7	29.7	29.7	75	22.8	0	1	315	0.00	30.377 
12:40	29.8	29.8	29.8	75	22.9	1	6	315	0.00	30.377 
12:45	30.0	30.0	30.0	74	22.7	1	6	315	0.00	30.381 
12:50	29.5	29.5	29.5	75	22.6	2	6	338	0.00	30.381 
12:55	29.0	29.0	29.0	78	23.0	2	5	0	0.00	30.381 
13:00	28.4	28.4	28.4	80	23.0	1	4	112	0.00	30.393 
13:05	28.1	28.1	28.1	80	22.7	1	4	90	0.00	30.393 
13:10	27.9	27.9	27.9	80	22.5	0	5	90	0.00	30.393 
13:15	27.9	27.9	27.9	80	22.5	1	4	68	0.00	30.392 
13:20	27.9	27.9	27.9	79	22.2	0	3	45	0.00	30.392 
13:25	28.1	28.1	28.1	77	21.8	0	2	45	0.00	30.392 
13:30	28.4	28.4	28.4	75	21.5	1	3	292	0.00	30.392 
13:35	28.5	28.5	28.5	73	21.0	1	4	315	0.00	30.392 
13:40	29.0	29.0	29.0	71	20.8	2	5	0	0.00	30.392 
13:45	29.3	29.3	29.3	69	20.4	0	3	338	0.00	30.395 
13:50	29.1	29.1	29.1	69	20.2	1	4	22	0.00	30.395 
13:55	29.3	29.3	29.3	69	20.4	1	4	0	0.00	30.395 
14:00	29.3	29.3	29.3	68	20.1	1	4	22	0.00	30.397 
14:05	29.4	29.4	29.4	68	20.2	0	4	90	0.00	30.397 
14:10	29.4	29.4	29.4	67	19.8	1	5	68	0.00	30.397 
14:15	29.4	29.4	29.4	66	19.5	1	6	45	0.00	30.406 
14:20	29.3	29.3	29.3	65	19.0	0	4	45	0.00	30.406 
14:25	29.1	29.1	29.1	65	18.8	1	3	22	0.00	30.406 
14:30	29.1	29.1	29.1	66	19.2	1	3	22	0.00	30.412 
14:35	29.0	29.0	29.0	66	19.1	2	5	338	0.00	30.412 
14:40	28.8	28.8	28.8	67	19.2	0	2	292	0.00	30.412 
14:45	28.8	28.8	28.8	66	18.9	0	3	315	0.00	30.420 
14:50	28.8	28.8	28.8	66	18.9	1	3	315	0.00	30.420 
14:55	28.8	28.8	28.8	65	18.5	0	4	315	0.00	30.420 
15:00	28.8	28.8	28.8	64	18.2	0	3	315	0.00	30.423 
15:05	29.0	29.0	29.0	65	18.7	0	3	315	0.00	30.423 
15:10	28.8	28.8	28.8	63	17.8	1	4	315	0.00	30.423 
15:15	28.7	28.7	28.7	62	17.4	1	4	68	0.00	30.428 
15:20	28.5	28.5	28.5	63	17.5	1	5	45	0.00	30.428 
15:25	28.2	28.2	28.2	63	17.2	1	4	338	0.00	30.428 
15:30	28.1	28.1	28.1	64	17.5	1	4	45	0.00	30.434 
15:35	27.9	27.9	27.9	65	17.7	2	7	45	0.00	30.434 
15:40	27.9	27.9	27.9	66	18.0	1	3	45	0.00	30.434 
15:45	27.8	27.8	27.8	66	17.9	1	4	0	0.00	30.442 
15:50	27.6	27.6	27.6	67	18.1	1	5	270	0.00	30.442 
15:55	27.5	27.5	27.5	67	18.0	1	5	338	0.00	30.442 
16:00	27.3	27.3	27.3	67	17.8	1	6	112	0.00	30.446 
16:05	27.3	27.3	27.3	66	17.5	1	4	90	0.00	30.446 
16:10	27.2	27.2	27.2	66	17.4	1	4	68	0.00	30.446 
16:15	27.0	27.0	27.0	66	17.2	1	5	45	0.00	30.454 
16:20	26.9	26.9	26.9	65	16.7	1	4	22	0.00	30.454 
16:25	26.7	26.7	26.7	65	16.5	1	4	68	0.00	30.454 
16:30	26.6	26.6	26.6	65	16.4	0	3	68	0.00	30.461 
16:35	26.3	26.3	26.3	65	16.2	0	2	68	0.00	30.461 
16:40	26.1	26.1	26.1	65	16.0	1	4	315	0.00	30.461 
16:45	26.0	26.0	26.0	65	15.9	0	1	315	0.00	30.471 
16:50	26.0	26.0	26.0	66	16.2	0	2	315	0.00	30.471 
16:55	25.8	25.8	25.8	66	16.0	0	2	315	0.00	30.471 
17:00	25.8	25.8	25.8	65	15.7	0	4	315	0.00	30.479 
17:05	25.7	25.7	25.7	64	15.2	0	2	90	0.00	30.479 
17:10	25.7	25.7	25.7	65	15.6	0	1	90	0.00	30.479 
17:15	25.6	25.6	25.6	65	15.5	0	1	90	0.00	30.482 
17:20	25.6	25.6	25.6	65	15.5	0	1	90	0.00	30.482 
17:25	25.4	25.4	25.4	65	15.3	0	3	90	0.00	30.482 
17:30	25.4	25.4	25.4	65	15.3	0	1	90	0.00	30.488 
17:35	25.3	25.3	25.3	65	15.2	0	1	90	0.00	30.488 
17:40	25.1	25.1	25.1	65	15.0	0	1	90	0.00	30.488 
17:45	25.0	25.0	25.0	65	14.9	0	1	90	0.00	30.494 
17:50	24.8	24.8	24.8	65	14.7	0	1	90	0.00	30.494 
17:55	24.7	24.7	24.7	65	14.6	0	1	90	0.00	30.494 
18:00	24.5	24.5	24.5	65	14.4	0	1	90	0.00	30.496 
18:05	24.5	24.5	24.5	66	14.8	0	1	90	0.00	30.496 
18:10	24.4	24.4	24.4	66	14.7	0	2	90	0.00	30.496 
18:15	24.4	24.4	24.4	66	14.7	0	1	90	0.00	30.499 
18:20	24.2	24.2	24.2	66	14.5	0	1	90	0.00	30.499 
18:25	24.1	24.1	24.1	67	14.8	0	1	90	0.00	30.499 
18:30	24.1	24.1	24.1	67	14.8	0	1	90	0.00	30.509 
18:35	23.9	23.9	23.9	67	14.6	0	0	---	0.00	30.509 
18:40	23.9	23.9	23.9	68	14.9	0	1	90	0.00	30.509 
18:45	24.1	24.1	24.1	71	16.1	1	4	22	0.00	30.519 
18:50	24.2	24.2	24.2	74	17.1	1	4	68	0.00	30.519 
18:55	24.4	24.4	24.4	76	17.9	1	4	90	0.00	30.519 
19:00	24.2	24.2	24.2	77	18.1	1	4	90	0.00	30.523 
19:05	24.1	24.1	24.1	77	18.0	2	9	90	0.00	30.523 
19:10	23.8	23.8	23.8	78	18.0	3	7	90	0.00	30.523 
19:15	23.5	23.5	23.5	78	17.7	1	7	90	0.00	30.527 
19:20	23.3	23.3	23.3	78	17.5	2	5	112	0.00	30.527 
19:25	23.0	23.0	23.0	78	17.2	1	4	112	0.00	30.527 
19:30	22.9	22.9	22.9	78	17.1	1	4	90	0.00	30.537 
19:35	22.9	22.9	22.9	79	17.4	2	4	90	0.00	30.537 
19:40	22.7	22.7	22.7	79	17.2	1	3	90	0.00	30.537 
19:45	22.7	22.7	22.7	79	17.2	1	5	90	0.00	30.544 
19:50	22.7	22.7	22.7	79	17.2	1	4	90	0.00	30.544 
19:55	22.7	22.7	22.7	78	16.9	1	5	90	0.00	30.544 
20:00	22.7	22.7	22.7	78	16.9	1	4	90	0.00	30.551 
20:05	22.5	22.5	22.5	78	16.7	1	4	90	0.00	30.551 
20:10	22.4	22.4	22.4	78	16.6	1	3	90	0.00	30.551 
20:15	22.2	22.2	22.2	78	16.4	1	6	112	0.00	30.556 
20:20	22.1	22.1	22.1	78	16.3	0	3	112	0.00	30.556 
20:25	21.9	21.9	21.9	78	16.1	0	3	112	0.00	30.556 
20:30	21.8	21.8	21.8	78	16.0	1	3	112	0.00	30.559 
20:35	21.6	21.6	21.6	78	15.8	0	1	112	0.00	30.559 
20:40	21.4	21.4	21.4	79	15.9	0	2	112	0.00	30.559 
20:45	21.4	21.4	21.4	79	15.9	0	3	112	0.00	30.562 
20:50	21.3	21.3	21.3	79	15.8	0	2	112	0.00	30.562 
20:55	21.3	21.3	21.3	80	16.1	0	2	112	0.00	30.562 
21:00	21.1	21.1	21.1	80	15.9	0	2	112	0.00	30.563 
21:05	21.1	21.1	21.1	80	15.9	0	2	112	0.00	30.563 
21:10	21.1	21.1	21.1	80	15.9	0	2	112	0.00	30.563 
21:15	21.0	21.0	21.0	80	15.8	0	1	112	0.00	30.566 
21:20	20.8	20.8	20.8	80	15.6	0	1	112	0.00	30.566 
21:25	20.6	20.6	20.6	80	15.4	0	1	112	0.00	30.566 
21:30	20.5	20.5	20.5	80	15.3	0	2	112	0.00	30.569 
21:35	20.5	20.5	20.5	81	15.6	0	1	112	0.00	30.569 
21:40	20.3	20.3	20.3	81	15.4	0	0	---	0.00	30.569 
21:45	20.2	20.2	20.2	81	15.3	0	1	112	0.00	30.576 
21:50	20.2	20.2	20.2	81	15.3	0	1	112	0.00	30.576 
21:55	20.0	20.0	20.0	81	15.1	0	0	---	0.00	30.576 
22:00	20.0	20.0	20.0	81	15.1	0	1	112	0.00	30.579 
22:05	19.9	19.9	19.9	81	15.0	0	1	112	0.00	30.579 
22:10	19.9	19.9	19.9	82	15.3	0	1	112	0.00	30.579 
22:15	19.9	19.9	19.9	82	15.3	0	1	112	0.00	30.576 
22:20	19.9	19.9	19.9	82	15.3	0	0	---	0.00	30.576 
22:25	20.0	20.0	20.0	82	15.4	0	0	---	0.00	30.576 
22:30	20.0	20.0	20.0	82	15.4	0	0	---	0.00	30.578 
22:35	20.2	20.2	20.2	82	15.6	0	1	112	0.00	30.578 
22:40	20.3	20.3	20.3	82	15.7	0	1	112	0.00	30.578 
22:45	20.5	20.5	20.5	81	15.6	0	1	112	0.00	30.584 
22:50	20.5	20.5	20.5	81	15.6	0	1	112	0.00	30.584 
22:55	20.6	20.6	20.6	81	15.7	0	1	112	0.00	30.584 
23:00	20.6	20.6	20.6	81	15.7	0	1	112	0.00	30.588 
23:05	20.6	20.6	20.6	81	15.7	0	0	---	0.00	30.588 
23:10	20.5	20.5	20.5	81	15.6	0	0	---	0.00	30.588 
23:15	20.3	20.3	20.3	81	15.4	0	0	---	0.00	30.589 
23:20	20.0	20.0	20.0	81	15.1	0	0	---	0.00	30.589 
23:25	19.9	19.9	19.9	81	15.0	0	0	---	0.00	30.589 
23:30	19.7	19.7	19.7	81	14.8	0	0	---	0.00	30.592 
23:35	19.4	19.4	19.4	82	14.8	0	0	---	0.00	30.592 
23:40	19.4	19.4	19.4	82	14.8	0	1	112	0.00	30.592 
23:45	19.2	19.2	19.2	82	14.6	0	2	112	0.00	30.603 
23:50	19.2	19.2	19.2	82	14.6	0	1	112	0.00	30.603 
23:55	19.2	19.2	19.2	81	14.3	0	1	112	0.00	30.603 

CoCoRaHS
IN-AL-39
A2 Web Hosting
Creative Commons License
GoDaddy
search engine by freefind advanced

loaded 2018-11-17 06:44:20 • last modified 2010-11-18 10:43:29
Privacy PolicyDisclaimer
• wx.awcolley.com is powered by PmWiki v.2002016 •
• all content (unless otherwise noted) © 2018 A W Colley